Amis Wisdom II — 3FGI2 — position and weather

sailwx.info

Track history (hours):
 
Tides and Currents Weather Stations Pressure Air Temp Water Temp Dewpoint Dewpoint Depression Visibility Wind Speed Wind Dir Waves Ship Positions

Amis Wisdom II

Last reported at 2014-Nov-22 08:16 UTC. Time now 2014-Nov-24 06:49 UTC.
Position N 01°11' E 103°40'.

Length 200 m; draft 12.6 m.

Type: Cargo ship. MMSI: 357086000.

Date/timePositionNaut miles runAvg speedWind from/ knotsBaromVisibWave heightAir tempDewpointWater temp
2014-Nov-22 08:16N 01°11' E 103°40'7 8.6
2014-Nov-22 07:28N 01°10' E 103°47'8 8.6
2014-Nov-22 06:33N 01°13' E 103°54'10 9.6
2014-Nov-22 05:32N 01°16' E 104°03'3 2.7
2014-Nov-22 04:20N 01°18' E 104°06'0 0.1
2014-Nov-22 02:20N 01°18' E 104°05'0 0.0
2014-Nov-22 01:26N 01°18' E 104°05'0 0.0
2014-Nov-21 23:32N 01°18' E 104°05'0 0.0
2014-Nov-21 19:32N 01°18' E 104°05'0 0.0
2014-Nov-21 18:29N 01°18' E 104°05'0 0.0
2014-Nov-21 17:14N 01°18' E 104°05'0 0.0
2014-Nov-21 15:32N 01°18' E 104°05'0 0.0
2014-Nov-21 13:08N 01°18' E 104°05'0 0.0
2014-Nov-21 12:08N 01°18' E 104°05'0 0.1
2014-Nov-21 09:26N 01°18' E 104°06'0 0.1
2014-Nov-21 08:32N 01°18' E 104°06'0 0.0
2014-Nov-21 07:32N 01°18' E 104°06'0 0.0
2014-Nov-21 05:32N 01°18' E 104°06'1 0.6
2014-Nov-21 04:33N 01°18' E 104°06'6 5.8
2014-Nov-21 03:31N 01°18' E 104°12'  
Track history (hours):
 
Tides and Currents Weather Stations Pressure Air Temp Water Temp Dewpoint Dewpoint Depression Visibility Wind Speed Wind Dir Waves Ship Positions

Amis Wisdom II

Last reported at 2014-Nov-22 08:16 UTC. Time now 2014-Nov-24 06:49 UTC.
Position N 01°11' E 103°40'.

Length 200 m; draft 12.6 m.

Type: Cargo ship. MMSI: 357086000.

Date/timePositionNaut miles runAvg speedWind from/ knotsBaromVisibWave heightAir tempDewpointWater temp
2014-Nov-22 08:16N 01°11' E 103°40'7 8.6
2014-Nov-22 07:28N 01°10' E 103°47'8 8.6
2014-Nov-22 06:33N 01°13' E 103°54'10 9.6
2014-Nov-22 05:32N 01°16' E 104°03'3 2.7
2014-Nov-22 04:20N 01°18' E 104°06'0 0.1
2014-Nov-22 02:20N 01°18' E 104°05'0 0.0
2014-Nov-22 01:26N 01°18' E 104°05'0 0.0
2014-Nov-21 23:32N 01°18' E 104°05'0 0.0
2014-Nov-21 19:32N 01°18' E 104°05'0 0.0
2014-Nov-21 18:29N 01°18' E 104°05'0 0.0
2014-Nov-21 17:14N 01°18' E 104°05'0 0.0
2014-Nov-21 15:32N 01°18' E 104°05'0 0.0
2014-Nov-21 13:08N 01°18' E 104°05'0 0.0
2014-Nov-21 12:08N 01°18' E 104°05'0 0.1
2014-Nov-21 09:26N 01°18' E 104°06'0 0.1
2014-Nov-21 08:32N 01°18' E 104°06'0 0.0
2014-Nov-21 07:32N 01°18' E 104°06'0 0.0
2014-Nov-21 05:32N 01°18' E 104°06'1 0.6
2014-Nov-21 04:33N 01°18' E 104°06'6 5.8
2014-Nov-21 03:31N 01°18' E 104°12'  

Dump ship's entire track history